Time;durP1;ratioP1;P1;durP2;ratioP2;P2;SDS_P1;SDS_P2;PMS_P1;PMS_P2;Temp;Humidity;BMP_temperature;BMP_pressure;BME280_temperature;BME280_humidity;BME280_pressure;Samples;Min_cycle;Max_cycle;Signal;HPM_P1;HPM_P2
2022/02/11 00:00:02;;;;;;;6.40;2.90;;;4.70;99.90;;;;;;5067560;28;20474;-78
2022/02/11 00:05:37;;;;;;;9.50;2.63;;;4.80;99.90;;;;;;5068920;28;20476;-78
2022/02/11 00:08:06;;;;;;;5.70;2.80;;;4.70;99.90;;;;;;5066165;28;20470;-76
2022/02/11 00:10:35;;;;;;;5.17;2.80;;;4.60;99.90;;;;;;5068755;28;20507;-77
2022/02/11 00:13:06;;;;;;;6.07;2.97;;;4.60;99.90;;;;;;5068688;28;20537;-77
2022/02/11 00:15:43;;;;;;;7.20;2.93;;;4.50;99.90;;;;;;5067249;28;20497;-78
2022/02/11 00:18:13;;;;;;;6.17;2.83;;;4.50;99.90;;;;;;5066443;28;20469;-76
2022/02/11 00:20:48;;;;;;;6.53;2.60;;;4.50;99.90;;;;;;5068694;28;20503;-77
2022/02/11 00:23:18;;;;;;;7.20;3.00;;;4.50;99.90;;;;;;5065880;28;20472;-79
2022/02/11 00:25:53;;;;;;;6.17;2.33;;;4.50;99.90;;;;;;5069488;28;20558;-77
2022/02/11 00:29:33;;;;;;;8.93;3.13;;;4.50;99.90;;;;;;5066321;28;20459;-77
2022/02/11 00:32:02;;;;;;;7.10;2.80;;;4.50;99.90;;;;;;5068171;28;20486;-77
2022/02/11 00:34:40;;;;;;;5.00;2.60;;;4.50;99.90;;;;;;5066125;28;20510;-77
2022/02/11 00:37:12;;;;;;;7.77;3.73;;;4.50;99.90;;;;;;5065439;28;20490;-78
2022/02/11 01:04:34;;;;;;;7.37;2.83;;;4.50;99.90;;;;;;5068386;28;20486;-77
2022/02/11 01:07:03;;;;;;;9.17;2.60;;;4.50;99.90;;;;;;5064612;28;20548;-77
2022/02/11 01:09:32;;;;;;;6.40;2.57;;;4.40;99.90;;;;;;5065458;28;20490;-78
2022/02/11 01:12:03;;;;;;;5.70;2.83;;;4.40;99.90;;;;;;5068310;28;20512;-77
2022/02/11 01:14:35;;;;;;;6.80;3.00;;;4.40;99.90;;;;;;5065218;28;20471;-77
2022/02/11 01:17:12;;;;;;;9.73;3.17;;;4.40;99.90;;;;;;5066344;28;20467;-77
2022/02/11 01:19:51;;;;;;;5.53;2.50;;;4.40;99.90;;;;;;5066738;28;20472;-77
2022/02/11 01:22:31;;;;;;;8.37;2.90;;;4.30;99.90;;;;;;5066521;28;20560;-76
2022/02/11 01:25:21;;;;;;;6.10;3.70;;;4.30;99.90;;;;;;5066083;28;20472;-77
2022/02/11 01:28:00;;;;;;;8.00;2.70;;;4.30;99.90;;;;;;5066344;28;23451;-78
2022/02/11 01:30:55;;;;;;;4.90;2.60;;;4.30;99.90;;;;;;5067241;28;20521;-77
2022/02/11 01:33:42;;;;;;;3.73;2.00;;;4.30;99.90;;;;;;5066329;28;20583;-77
2022/02/11 01:36:34;;;;;;;6.27;2.67;;;4.30;99.90;;;;;;5063529;28;20477;-78
2022/02/11 01:39:35;;;;;;;8.13;3.03;;;4.30;99.90;;;;;;5065621;28;20472;-77
2022/02/11 01:50:50;;;;;;;8.63;2.80;;;4.30;99.90;;;;;;5049031;28;20547;-77
2022/02/11 01:53:28;;;;;;;3.20;2.30;;;4.20;99.90;;;;;;5067236;28;20469;-77
2022/02/11 01:56:14;;;;;;;5.37;2.90;;;4.20;99.90;;;;;;5065561;28;20530;-77
2022/02/11 01:59:31;;;;;;;4.50;2.90;;;4.20;99.90;;;;;;5068072;28;20490;-76
2022/02/11 02:02:42;;;;;;;5.40;3.20;;;4.10;99.90;;;;;;5065226;28;20588;-77
2022/02/11 02:05:41;;;;;;;9.20;3.70;;;4.10;99.90;;;;;;5065268;28;20487;-77
2022/02/11 02:25:23;;;;;;;9.10;3.10;;;4.00;99.90;;;;;;5069492;28;20488;-76
2022/02/11 02:28:20;;;;;;;7.43;3.50;;;4.00;99.90;;;;;;5067090;28;20473;-78
2022/02/11 02:33:53;;;;;;;8.17;2.77;;;4.00;99.90;;;;;;5068057;28;20457;-76
2022/02/11 02:56:35;;;;;;;6.67;3.27;;;3.90;99.90;;;;;;5069830;28;20489;-77
2022/02/11 02:56:43;;;;;;;5.63;3.67;;;4.00;99.90;;;;;;5067750;28;20464;-77
2022/02/11 02:59:27;;;;;;;5.97;3.83;;;3.90;99.90;;;;;;5071509;28;20461;-77
2022/02/11 03:02:03;;;;;;;9.37;4.03;;;3.80;99.90;;;;;;5066649;28;20513;-77
2022/02/11 03:35:18;;;;;;;11.10;4.13;;;3.60;99.90;;;;;;5082661;28;20534;-77
2022/02/11 03:49:01;;;;;;;9.20;4.30;;;3.50;99.90;;;;;;5068503;28;20572;-76
2022/02/11 03:51:40;;;;;;;5.37;4.00;;;3.50;99.90;;;;;;5064649;28;20578;-77
2022/02/11 04:56:31;;;;;;;13.07;5.27;;;3.50;99.90;;;;;;5052719;28;20592;-78
2022/02/11 05:01:47;;;;;;;8.33;4.20;;;3.40;99.90;;;;;;5039592;28;20490;-76
2022/02/11 05:04:15;;;;;;;10.70;5.83;;;3.40;99.90;;;;;;5032312;28;20459;-76
2022/02/11 05:06:44;;;;;;;8.70;4.80;;;3.40;99.90;;;;;;5030813;28;20779;-76
2022/02/11 05:09:12;;;;;;;10.47;4.27;;;3.50;99.90;;;;;;5032364;28;20468;-76
2022/02/11 05:11:44;;;;;;;7.13;4.60;;;3.50;99.90;;;;;;5035319;28;20485;-78
2022/02/11 05:14:13;;;;;;;6.73;4.30;;;3.50;99.90;;;;;;5032187;28;20528;-76
2022/02/11 05:16:43;;;;;;;8.00;5.30;;;3.50;99.90;;;;;;5030329;28;20493;-76
2022/02/11 05:19:16;;;;;;;9.33;4.90;;;3.50;99.90;;;;;;5039317;28;20468;-75
2022/02/11 05:21:44;;;;;;;8.47;4.67;;;3.50;99.90;;;;;;5027605;28;20569;-75
2022/02/11 05:24:12;;;;;;;8.40;5.50;;;3.40;99.90;;;;;;5030071;28;20483;-76
2022/02/11 05:26:45;;;;;;;14.97;5.10;;;3.40;99.90;;;;;;5028721;28;20496;-76
2022/02/11 05:29:15;;;;;;;13.30;6.53;;;3.40;99.90;;;;;;5031005;28;20561;-75
2022/02/11 05:31:45;;;;;;;8.90;5.00;;;3.30;99.90;;;;;;5029950;28;20489;-77
2022/02/11 05:34:17;;;;;;;6.57;4.90;;;3.40;99.90;;;;;;5034109;28;20558;-75
2022/02/11 05:36:45;;;;;;;9.23;5.20;;;3.40;99.90;;;;;;5035666;28;20479;-76
2022/02/11 05:39:13;;;;;;;10.87;4.80;;;3.40;99.90;;;;;;5018688;28;20478;-76
2022/02/11 05:41:41;;;;;;;7.63;4.83;;;3.40;99.90;;;;;;5016821;28;20564;-76
2022/02/11 05:44:09;;;;;;;12.70;5.90;;;3.40;99.90;;;;;;5018901;28;20576;-76
2022/02/11 05:46:38;;;;;;;9.60;5.47;;;3.40;99.90;;;;;;5020771;28;20538;-78
2022/02/11 05:49:07;;;;;;;14.00;5.73;;;3.50;99.90;;;;;;5020400;28;20542;-77
2022/02/11 05:51:41;;;;;;;9.40;6.03;;;3.50;99.90;;;;;;5024630;28;20518;-77
2022/02/11 05:54:13;;;;;;;12.13;5.77;;;3.50;99.90;;;;;;5020335;28;20493;-78
2022/02/11 05:56:41;;;;;;;8.70;5.47;;;3.50;99.90;;;;;;5019553;28;20465;-76
2022/02/11 05:59:11;;;;;;;9.00;5.47;;;3.50;99.90;;;;;;5026504;28;20570;-77
2022/02/11 06:01:39;;;;;;;10.07;5.10;;;3.50;99.90;;;;;;5016196;28;20489;-76
2022/02/11 06:04:07;;;;;;;11.67;5.47;;;3.50;99.90;;;;;;5017821;28;20485;-76
2022/02/11 06:06:35;;;;;;;9.17;5.43;;;3.50;99.90;;;;;;5026207;28;20460;-78
2022/02/11 06:09:04;;;;;;;8.37;5.17;;;3.50;99.90;;;;;;5021519;28;20463;-78
2022/02/11 06:11:32;;;;;;;12.03;5.90;;;3.50;99.90;;;;;;5015593;28;20491;-75
2022/02/11 06:14:00;;;;;;;10.20;5.87;;;3.60;99.90;;;;;;5011605;28;20469;-77
2022/02/11 06:16:29;;;;;;;9.13;5.63;;;3.50;99.90;;;;;;5007888;28;20472;-76
2022/02/11 06:18:57;;;;;;;8.73;5.23;;;3.60;99.90;;;;;;5014073;28;20767;-75
2022/02/11 06:21:25;;;;;;;10.80;6.43;;;3.60;99.90;;;;;;5010361;28;20522;-78
2022/02/11 06:23:55;;;;;;;8.50;5.70;;;3.60;99.90;;;;;;5027393;28;20497;-76
2022/02/11 06:26:28;;;;;;;13.50;5.43;;;3.70;99.90;;;;;;5008331;28;20521;-78
2022/02/11 06:28:56;;;;;;;8.90;5.20;;;3.70;99.90;;;;;;5007624;28;20491;-76
2022/02/11 06:31:27;;;;;;;10.63;5.60;;;3.70;99.90;;;;;;5009124;28;20486;-77
2022/02/11 06:33:55;;;;;;;7.63;5.20;;;3.80;99.90;;;;;;5010141;28;20558;-76
2022/02/11 06:36:23;;;;;;;10.07;5.87;;;3.80;99.90;;;;;;5010069;28;20473;-76
2022/02/11 06:38:51;;;;;;;10.77;5.47;;;3.80;99.90;;;;;;5012543;28;20577;-75
2022/02/11 06:41:19;;;;;;;11.03;5.53;;;3.80;99.90;;;;;;5009290;28;20637;-76
2022/02/11 06:43:49;;;;;;;9.47;6.20;;;3.90;99.90;;;;;;5009389;28;20473;-78
2022/02/11 06:46:17;;;;;;;11.53;5.90;;;3.90;99.90;;;;;;4992817;28;20476;-76
2022/02/11 06:48:45;;;;;;;9.50;5.73;;;3.90;99.90;;;;;;4998466;28;20464;-76
2022/02/11 06:51:16;;;;;;;9.90;5.50;;;3.90;99.90;;;;;;4996149;28;20510;-76
2022/02/11 06:53:44;;;;;;;10.30;6.33;;;3.90;99.90;;;;;;4996079;28;20572;-75
2022/02/11 06:56:12;;;;;;;9.03;5.90;;;3.90;99.90;;;;;;4993369;28;20502;-76
2022/02/11 06:58:40;;;;;;;7.57;6.00;;;3.90;99.90;;;;;;4995240;28;20484;-76
2022/02/11 07:01:09;;;;;;;8.93;6.97;;;3.90;99.90;;;;;;4995354;28;20490;-76
2022/02/11 07:03:37;;;;;;;6.73;5.60;;;4.00;99.90;;;;;;4986383;28;20467;-76
2022/02/11 07:06:05;;;;;;;9.50;6.13;;;3.90;99.90;;;;;;4986721;28;20494;-76
2022/02/11 07:08:33;;;;;;;10.20;6.80;;;4.00;99.90;;;;;;4994726;28;20514;-76
2022/02/11 07:11:02;;;;;;;9.03;6.70;;;4.00;99.90;;;;;;4999655;28;21000;-76
2022/02/11 07:13:30;;;;;;;11.97;7.00;;;4.00;99.90;;;;;;5000022;28;20528;-76
2022/02/11 07:15:59;;;;;;;10.43;6.47;;;4.00;99.90;;;;;;4996394;28;20501;-77
2022/02/11 07:18:29;;;;;;;11.77;6.43;;;4.00;99.90;;;;;;4994844;28;20489;-76
2022/02/11 07:20:57;;;;;;;9.63;6.00;;;4.10;99.90;;;;;;4998631;28;20556;-76
2022/02/11 07:23:25;;;;;;;9.83;6.63;;;4.10;99.90;;;;;;4998986;28;20503;-76
2022/02/11 07:25:53;;;;;;;9.03;6.80;;;4.10;99.90;;;;;;4993089;28;20485;-76
2022/02/11 07:28:21;;;;;;;8.33;6.70;;;4.10;99.90;;;;;;4996276;28;20473;-76
2022/02/11 07:30:50;;;;;;;10.37;6.70;;;4.10;99.90;;;;;;4996516;28;20530;-76
2022/02/11 07:33:18;;;;;;;11.00;7.00;;;4.10;99.90;;;;;;4996795;28;20483;-77
2022/02/11 07:35:48;;;;;;;9.53;7.10;;;4.10;99.90;;;;;;4995823;28;20497;-77
2022/02/11 07:38:15;;;;;;;9.33;6.53;;;4.10;99.90;;;;;;4997393;28;20489;-76
2022/02/11 07:40:44;;;;;;;10.67;7.10;;;4.10;99.90;;;;;;4998422;28;20495;-76
2022/02/11 07:43:12;;;;;;;10.70;6.90;;;4.10;99.90;;;;;;4998526;28;20470;-77
2022/02/11 07:46:01;;;;;;;8.63;6.30;;;4.20;99.90;;;;;;4995443;28;20585;-76
2022/02/11 07:48:29;;;;;;;8.97;6.53;;;4.20;99.90;;;;;;4995154;28;20460;-76
2022/02/11 07:51:00;;;;;;;9.43;6.57;;;4.20;99.90;;;;;;4995738;28;20488;-75
2022/02/11 07:53:28;;;;;;;11.67;7.10;;;4.20;99.90;;;;;;4996823;28;20469;-76
2022/02/11 07:55:58;;;;;;;10.97;6.73;;;4.30;99.90;;;;;;4997339;28;20480;-76
2022/02/11 07:58:28;;;;;;;9.53;6.37;;;4.30;99.90;;;;;;4995652;28;20487;-75
2022/02/11 08:00:57;;;;;;;8.70;6.17;;;4.30;99.90;;;;;;5000467;28;20485;-76
2022/02/11 08:03:29;;;;;;;9.80;7.33;;;4.30;99.90;;;;;;4998866;28;20464;-75
2022/02/11 08:05:58;;;;;;;7.47;6.70;;;4.30;99.90;;;;;;4993100;28;21018;-75
2022/02/11 08:08:31;;;;;;;9.23;6.70;;;4.40;99.90;;;;;;4990516;28;20468;-74
2022/02/11 08:10:59;;;;;;;13.17;7.00;;;4.40;99.90;;;;;;4991845;28;20545;-75
2022/02/11 08:13:31;;;;;;;12.47;7.90;;;4.40;99.90;;;;;;4993475;28;20467;-76
2022/02/11 08:15:59;;;;;;;11.47;7.37;;;4.40;99.90;;;;;;4990367;28;20503;-75
2022/02/11 08:18:27;;;;;;;15.03;7.70;;;4.40;99.90;;;;;;4994702;28;20478;-76
2022/02/11 08:21:13;;;;;;;11.20;8.13;;;4.40;99.90;;;;;;5000633;28;20578;-75
2022/02/11 08:23:46;;;;;;;11.80;7.83;;;4.40;99.90;;;;;;4998494;28;20493;-75
2022/02/11 08:26:17;;;;;;;9.03;7.60;;;4.40;99.90;;;;;;5001042;28;20601;-77
2022/02/11 08:28:45;;;;;;;12.50;8.40;;;4.40;99.90;;;;;;4996154;28;20474;-76
2022/02/11 08:31:13;;;;;;;13.67;8.30;;;4.40;99.90;;;;;;4996506;28;20489;-76
2022/02/11 08:33:46;;;;;;;12.93;8.10;;;4.40;99.90;;;;;;4995711;28;20464;-76
2022/02/11 08:36:15;;;;;;;12.80;7.87;;;4.40;99.90;;;;;;4996295;28;20493;-76
2022/02/11 08:38:45;;;;;;;12.30;8.13;;;4.30;99.90;;;;;;4997786;28;20492;-77
2022/02/11 08:41:16;;;;;;;10.13;8.30;;;4.40;99.90;;;;;;4997925;28;20510;-76
2022/02/11 08:43:44;;;;;;;12.00;7.70;;;4.40;99.90;;;;;;5000036;28;20478;-76
2022/02/11 08:46:12;;;;;;;12.97;7.80;;;4.40;99.90;;;;;;5002256;28;20485;-76
2022/02/11 08:48:43;;;;;;;10.63;6.87;;;4.40;99.90;;;;;;4998472;28;20462;-78
2022/02/11 08:51:11;;;;;;;10.63;7.43;;;4.40;99.90;;;;;;4995818;28;20577;-76
2022/02/11 08:53:40;;;;;;;10.00;7.73;;;4.40;99.90;;;;;;4995166;28;20522;-76
2022/02/11 08:56:09;;;;;;;10.00;7.23;;;4.40;99.90;;;;;;5002137;28;20485;-77
2022/02/11 08:58:41;;;;;;;11.20;8.27;;;4.40;99.90;;;;;;5006847;28;20487;-76
2022/02/11 09:01:09;;;;;;;13.33;8.13;;;4.50;99.90;;;;;;4999422;28;20494;-76
2022/02/11 09:03:39;;;;;;;11.50;7.60;;;4.50;99.90;;;;;;4994803;28;20466;-76
2022/02/11 09:06:09;;;;;;;12.47;7.73;;;4.50;99.90;;;;;;5004583;28;20482;-75
2022/02/11 09:08:37;;;;;;;10.70;7.30;;;4.60;99.90;;;;;;4996290;28;20476;-76
2022/02/11 09:11:08;;;;;;;8.00;7.17;;;4.60;99.90;;;;;;4995799;28;20493;-76
2022/02/11 09:13:36;;;;;;;10.47;7.50;;;4.60;99.90;;;;;;5000622;28;20565;-76
2022/02/11 09:16:05;;;;;;;11.07;7.40;;;4.60;99.90;;;;;;4998711;28;20491;-76
2022/02/11 09:18:35;;;;;;;8.80;6.90;;;4.60;99.90;;;;;;5002243;28;20487;-76
2022/02/11 09:21:04;;;;;;;12.07;7.23;;;4.60;99.90;;;;;;5002502;28;20971;-76
2022/02/11 09:23:33;;;;;;;10.63;7.10;;;4.60;99.90;;;;;;5000344;28;20462;-77
2022/02/11 09:26:02;;;;;;;10.50;7.83;;;4.70;99.90;;;;;;5003205;28;20835;-77
2022/02/11 09:28:32;;;;;;;11.20;8.30;;;4.70;99.90;;;;;;4999623;28;20485;-76
2022/02/11 09:31:00;;;;;;;8.70;7.23;;;4.70;99.90;;;;;;5000711;28;20486;-77
2022/02/11 09:33:33;;;;;;;12.43;6.30;;;4.70;99.90;;;;;;5003638;28;20481;-76
2022/02/11 09:36:04;;;;;;;9.63;6.80;;;4.70;99.90;;;;;;5000163;28;23759;-77
2022/02/11 09:38:32;;;;;;;7.70;6.13;;;4.70;99.90;;;;;;4997551;28;20470;-75
2022/02/11 09:41:01;;;;;;;7.70;6.37;;;4.80;99.90;;;;;;5001209;28;20492;-76
2022/02/11 09:43:31;;;;;;;7.47;6.50;;;4.70;99.90;;;;;;5000938;28;20543;-76
2022/02/11 09:45:59;;;;;;;8.83;5.73;;;4.80;99.90;;;;;;5014599;28;20593;-76
2022/02/11 09:48:27;;;;;;;9.47;7.60;;;4.80;99.90;;;;;;5001100;28;20469;-76
2022/02/11 09:50:55;;;;;;;7.30;6.50;;;4.80;99.90;;;;;;4998960;28;20488;-76
2022/02/11 09:53:29;;;;;;;7.73;6.83;;;4.90;99.90;;;;;;4995695;28;20462;-76
2022/02/11 09:55:58;;;;;;;11.47;6.90;;;4.90;99.90;;;;;;5014475;28;20576;-75
2022/02/11 09:58:30;;;;;;;9.70;7.43;;;4.90;99.90;;;;;;5017047;28;20459;-75
2022/02/11 10:00:59;;;;;;;12.17;7.53;;;4.90;99.90;;;;;;5017163;28;20563;-75
2022/02/11 10:03:29;;;;;;;9.93;7.10;;;4.90;99.90;;;;;;5017733;28;20465;-74
2022/02/11 10:05:59;;;;;;;7.77;6.60;;;4.90;99.90;;;;;;5014682;28;20496;-75
2022/02/11 10:08:30;;;;;;;10.40;7.70;;;4.90;99.90;;;;;;5017336;28;20471;-75
2022/02/11 10:10:58;;;;;;;9.60;7.30;;;5.00;99.90;;;;;;5017416;28;20514;-75
2022/02/11 10:13:30;;;;;;;10.47;8.27;;;4.90;99.90;;;;;;5016450;28;20518;-75
2022/02/11 10:16:06;;;;;;;12.70;8.63;;;5.00;99.90;;;;;;5019809;28;20490;-74
2022/02/11 10:18:34;;;;;;;13.83;8.00;;;5.00;99.90;;;;;;5015796;28;20462;-74
2022/02/11 10:21:03;;;;;;;8.20;6.73;;;5.00;99.90;;;;;;5019133;28;20528;-75
2022/02/11 10:23:36;;;;;;;8.70;7.73;;;5.00;99.90;;;;;;5013282;28;21435;-75
2022/02/11 10:26:09;;;;;;;8.47;6.93;;;5.10;99.90;;;;;;5012773;28;20511;-75
2022/02/11 10:28:41;;;;;;;9.80;6.80;;;5.10;99.90;;;;;;5017607;28;20782;-74
2022/02/11 10:31:19;;;;;;;7.57;6.53;;;5.20;99.90;;;;;;5016855;28;20483;-75
2022/02/11 10:33:54;;;;;;;8.43;6.10;;;5.30;99.90;;;;;;5016331;28;20456;-73
2022/02/11 10:36:24;;;;;;;9.87;6.67;;;5.40;99.90;;;;;;5014985;28;20658;-75
2022/02/11 10:39:14;;;;;;;9.60;6.90;;;5.50;99.90;;;;;;5016711;28;20542;-75
2022/02/11 10:41:45;;;;;;;9.53;7.40;;;5.60;99.90;;;;;;5016720;28;20520;-76
2022/02/11 10:44:16;;;;;;;10.67;7.13;;;5.60;99.90;;;;;;5015621;28;20485;-76
2022/02/11 10:46:48;;;;;;;10.27;6.60;;;5.70;99.90;;;;;;5012173;28;20468;-74
2022/02/11 10:49:18;;;;;;;10.20;7.13;;;5.70;99.90;;;;;;5009189;28;20468;-74
2022/02/11 10:51:48;;;;;;;9.17;6.83;;;5.80;99.90;;;;;;5014916;28;20574;-75
2022/02/11 10:54:23;;;;;;;7.47;6.67;;;5.80;99.90;;;;;;5013851;28;21091;-75
2022/02/11 10:56:59;;;;;;;14.60;6.90;;;5.90;99.90;;;;;;5017761;28;20463;-75
2022/02/11 10:59:29;;;;;;;8.53;5.73;;;5.90;99.90;;;;;;5015403;28;20495;-74
2022/02/11 11:02:01;;;;;;;7.00;6.10;;;5.90;99.90;;;;;;5013595;28;20538;-76
2022/02/11 11:04:30;;;;;;;10.37;6.63;;;6.00;99.90;;;;;;5018647;28;20514;-76
2022/02/11 11:06:58;;;;;;;9.27;6.17;;;6.00;99.90;;;;;;5027275;28;20486;-76
2022/02/11 11:09:28;;;;;;;9.13;6.30;;;5.90;99.90;;;;;;5017958;28;20470;-77
2022/02/11 11:11:59;;;;;;;7.00;5.67;;;6.00;99.90;;;;;;5022135;28;20575;-79
2022/02/11 11:14:28;;;;;;;7.50;6.63;;;6.00;99.90;;;;;;5025130;28;20512;-78
2022/02/11 11:17:01;;;;;;;7.80;6.00;;;6.00;99.90;;;;;;5021838;28;20497;-79
2022/02/11 11:19:34;;;;;;;5.30;4.80;;;6.00;99.90;;;;;;5031061;28;20540;-77
2022/02/11 11:22:14;;;;;;;11.47;5.03;;;6.10;99.90;;;;;;5017364;28;20491;-77
2022/02/11 11:24:49;;;;;;;11.60;4.90;;;6.20;99.90;;;;;;5014945;28;20488;-76
2022/02/11 11:27:40;;;;;;;5.10;4.60;;;6.30;99.90;;;;;;5012475;28;20555;-76
2022/02/11 11:30:23;;;;;;;4.50;4.10;;;6.40;99.90;;;;;;5018452;28;20459;-76
2022/02/11 11:33:26;;;;;;;5.50;4.30;;;6.30;99.90;;;;;;5015709;28;20472;-80
2022/02/11 11:36:14;;;;;;;7.40;4.83;;;6.50;99.90;;;;;;4978754;28;20509;-79
2022/02/11 11:38:48;;;;;;;6.80;4.83;;;6.60;99.90;;;;;;4976037;28;20470;-77
2022/02/11 11:41:22;;;;;;;7.83;5.20;;;6.60;99.90;;;;;;4999118;28;20548;-76
2022/02/11 11:43:57;;;;;;;5.53;4.80;;;6.80;99.90;;;;;;5013286;28;20626;-77
2022/02/11 11:46:33;;;;;;;7.13;5.20;;;6.80;99.90;;;;;;5013665;28;20526;-76
2022/02/11 11:49:14;;;;;;;6.03;4.90;;;6.80;99.90;;;;;;5016362;28;20464;-76
2022/02/11 11:52:06;;;;;;;5.73;5.20;;;6.80;99.90;;;;;;5017810;28;20495;-77
2022/02/11 11:54:36;;;;;;;6.00;5.40;;;6.80;99.90;;;;;;5013425;28;20959;-76
2022/02/11 11:57:11;;;;;;;6.33;5.73;;;6.80;99.90;;;;;;5013542;28;20508;-76
2022/02/11 11:59:45;;;;;;;6.30;5.70;;;6.90;99.90;;;;;;5016843;28;20469;-76
2022/02/11 12:02:20;;;;;;;10.17;5.43;;;6.90;99.90;;;;;;5014899;28;20493;-76
2022/02/11 12:04:53;;;;;;;6.10;5.60;;;6.90;99.90;;;;;;5014730;28;20561;-77
2022/02/11 12:07:23;;;;;;;5.03;4.57;;;7.40;99.90;;;;;;5017674;28;20805;-76
2022/02/11 12:09:53;;;;;;;6.73;4.80;;;9.30;99.90;;;;;;5010549;28;20569;-77
2022/02/11 12:12:25;;;;;;;4.60;4.20;;;10.90;99.90;;;;;;5012048;28;20591;-77
2022/02/11 12:14:57;;;;;;;4.93;4.37;;;10.90;99.90;;;;;;5008002;28;20577;-76
2022/02/11 12:17:26;;;;;;;6.90;5.03;;;10.90;99.90;;;;;;5008067;28;20838;-77
2022/02/11 12:19:56;;;;;;;4.43;4.03;;;11.90;99.90;;;;;;5010352;28;20479;-76
2022/02/11 12:22:27;;;;;;;4.37;3.67;;;12.60;99.90;;;;;;5011928;28;20487;-76
2022/02/11 12:27:47;;;;;;;4.50;3.80;;;16.10;99.90;;;;;;5008876;28;20475;-77
2022/02/11 12:30:21;;;;;;;3.80;3.50;;;15.30;99.90;;;;;;5011588;28;20460;-77
2022/02/11 12:32:57;;;;;;;4.90;4.20;;;14.10;99.90;;;;;;5011417;28;20464;-76
2022/02/11 12:35:29;;;;;;;4.33;3.93;;;13.10;99.90;;;;;;5009402;28;20490;-77
2022/02/11 12:37:59;;;;;;;5.27;4.23;;;11.90;99.90;;;;;;5008501;28;20468;-78
2022/02/11 12:40:32;;;;;;;4.50;4.10;;;10.90;99.90;;;;;;5015633;28;20491;-81
2022/02/11 12:43:03;;;;;;;7.03;4.47;;;10.20;99.90;;;;;;5013338;28;20476;-81
2022/02/11 12:45:33;;;;;;;5.27;4.67;;;9.60;99.90;;;;;;5007493;28;20487;-80
2022/02/11 12:48:05;;;;;;;5.90;5.40;;;9.00;99.90;;;;;;5017984;28;20463;-78
2022/02/11 12:50:42;;;;;;;6.40;5.90;;;8.70;99.90;;;;;;5024583;28;20527;-77
2022/02/11 12:53:13;;;;;;;7.60;7.00;;;8.30;99.90;;;;;;5029687;28;20493;-77
2022/02/11 12:55:42;;;;;;;8.07;7.07;;;8.10;99.90;;;;;;5026768;28;20522;-79
2022/02/11 12:58:13;;;;;;;10.20;9.30;;;7.80;99.90;;;;;;5027599;28;20439;-77
2022/02/11 13:00:43;;;;;;;7.77;6.10;;;7.60;99.90;;;;;;5025966;28;20480;-77
2022/02/11 13:03:22;;;;;;;3.83;3.53;;;7.40;99.90;;;;;;5022837;28;20484;-77
2022/02/11 13:05:52;;;;;;;3.83;3.40;;;7.20;99.90;;;;;;5021036;28;20483;-77
2022/02/11 13:08:24;;;;;;;6.70;3.57;;;6.90;99.90;;;;;;5022540;28;20467;-76
2022/02/11 13:11:07;;;;;;;2.60;2.40;;;6.70;99.90;;;;;;5032607;28;20483;-84
2022/02/11 13:13:36;;;;;;;2.30;2.10;;;6.50;99.90;;;;;;5024375;28;20462;-75
2022/02/11 13:16:05;;;;;;;3.80;2.20;;;6.30;99.90;;;;;;5021211;28;20495;-78
2022/02/11 13:18:40;;;;;;;2.20;1.83;;;6.20;99.90;;;;;;5021030;28;20467;-73
2022/02/11 13:21:10;;;;;;;5.90;1.70;;;6.10;99.90;;;;;;5023879;28;20491;-78
2022/02/11 13:23:39;;;;;;;1.60;1.40;;;6.00;99.90;;;;;;5024859;28;20467;-78
2022/02/11 13:26:12;;;;;;;1.53;1.40;;;6.10;99.90;;;;;;5021601;28;20514;-76
2022/02/11 13:28:45;;;;;;;5.47;1.60;;;6.10;99.90;;;;;;5024016;28;20537;-76
2022/02/11 13:31:51;;;;;;;2.07;1.10;;;6.10;99.90;;;;;;5038790;28;20472;-82
2022/02/11 13:34:22;;;;;;;3.03;1.13;;;6.10;99.90;;;;;;5022426;28;20508;-81
2022/02/11 13:37:04;;;;;;;2.20;1.40;;;6.80;99.90;;;;;;5019182;28;20473;-75
2022/02/11 13:39:34;;;;;;;2.67;1.30;;;7.50;99.90;;;;;;5019922;28;20490;-76
2022/02/11 13:42:12;;;;;;;2.17;1.33;;;7.40;99.90;;;;;;5024062;28;20704;-77
2022/02/11 13:44:40;;;;;;;4.13;1.43;;;7.20;99.90;;;;;;5023493;28;20484;-77
2022/02/11 13:47:16;;;;;;;1.93;1.23;;;6.90;99.90;;;;;;5026599;28;20469;-75
2022/02/11 13:50:01;;;;;;;2.10;1.00;;;6.70;99.90;;;;;;5025684;28;20456;-80
2022/02/11 13:55:18;;;;;;;1.50;1.40;;;6.50;99.90;;;;;;5027282;28;20571;-79
2022/02/11 13:57:55;;;;;;;2.70;1.53;;;7.90;99.90;;;;;;5023852;28;20463;-76
2022/02/11 14:00:36;;;;;;;2.07;1.20;;;9.80;99.90;;;;;;5021963;28;20610;-77
2022/02/11 14:03:07;;;;;;;1.60;1.10;;;10.60;99.90;;;;;;5022163;28;20458;-82
2022/02/11 14:05:45;;;;;;;1.30;1.20;;;11.00;99.90;;;;;;5046393;28;20622;-85
2022/02/11 14:08:15;;;;;;;3.70;1.20;;;10.90;99.90;;;;;;5028493;28;20622;-82
2022/02/11 14:10:44;;;;;;;1.43;1.20;;;10.40;99.90;;;;;;5028805;28;20548;-85
2022/02/11 14:13:15;;;;;;;1.37;0.93;;;9.80;99.90;;;;;;5029636;28;20460;-82
2022/02/11 14:15:44;;;;;;;1.60;1.20;;;9.80;99.90;;;;;;5039406;28;20566;-77
2022/02/11 14:18:13;;;;;;;2.10;1.53;;;10.00;99.90;;;;;;5018489;28;20459;-77
2022/02/11 14:20:41;;;;;;;2.83;1.30;;;9.80;99.90;;;;;;5018927;28;20541;-79
2022/02/11 14:23:18;;;;;;;4.50;1.50;;;9.70;99.90;;;;;;5021766;28;20577;-76
2022/02/11 14:25:47;;;;;;;5.57;1.50;;;9.50;99.90;;;;;;5014536;28;20563;-76
2022/02/11 14:28:20;;;;;;;4.43;1.50;;;9.30;99.90;;;;;;5021576;28;20517;-78
2022/02/11 14:30:48;;;;;;;3.33;1.40;;;9.20;99.90;;;;;;5016960;28;20490;-78
2022/02/11 14:33:16;;;;;;;4.53;1.97;;;9.00;99.90;;;;;;5024764;28;20516;-80
2022/02/11 14:35:44;;;;;;;3.30;1.47;;;8.90;99.90;;;;;;5023163;28;20488;-77
2022/02/11 14:38:13;;;;;;;3.50;1.40;;;8.70;99.90;;;;;;5021989;28;20489;-77
2022/02/11 14:41:45;;;;;;;2.47;1.20;;;8.60;99.90;;;;;;5020558;28;20483;-78
2022/02/11 14:43:31;;;;;;;2.20;1.30;;;8.60;99.90;;;;;;5028772;28;20491;-79
2022/02/11 14:46:00;;;;;;;2.67;1.30;;;8.60;99.90;;;;;;5022452;28;20506;-79
2022/02/11 14:48:28;;;;;;;2.30;1.23;;;8.50;99.90;;;;;;5022529;28;20464;-79
2022/02/11 14:50:56;;;;;;;2.77;1.30;;;8.00;99.90;;;;;;5016197;28;20492;-81
2022/02/11 14:53:24;;;;;;;1.73;1.20;;;8.10;99.90;;;;;;5023060;28;20474;-82
2022/02/11 14:55:54;;;;;;;3.13;1.00;;;8.10;99.90;;;;;;5028873;28;20489;-78
2022/02/11 14:58:22;;;;;;;3.10;1.50;;;8.00;99.90;;;;;;5020719;28;20472;-81
2022/02/11 15:00:50;;;;;;;1.57;0.83;;;8.00;99.90;;;;;;5029313;28;20483;-78
2022/02/11 15:03:22;;;;;;;3.33;1.13;;;8.00;99.90;;;;;;5021931;28;20494;-77
2022/02/11 15:05:50;;;;;;;2.80;1.30;;;7.90;99.90;;;;;;5018849;28;20485;-77
2022/02/11 15:08:21;;;;;;;4.20;1.10;;;7.90;99.90;;;;;;5023354;28;20488;-82
2022/02/11 15:10:49;;;;;;;2.77;1.10;;;7.70;99.90;;;;;;5026622;28;20499;-80
2022/02/11 15:13:18;;;;;;;3.40;1.10;;;7.60;99.90;;;;;;5022606;28;20568;-82
2022/02/11 15:15:47;;;;;;;5.40;1.13;;;7.50;99.90;;;;;;5025670;28;20504;-87
2022/02/11 15:18:17;;;;;;;1.40;1.30;;;7.40;99.90;;;;;;5044857;28;20453;-85
2022/02/11 15:20:47;;;;;;;2.33;1.40;;;7.20;99.90;;;;;;5029442;28;20544;-83
2022/02/11 15:23:15;;;;;;;1.70;1.20;;;7.20;99.90;;;;;;5030007;28;20468;-85
2022/02/11 15:25:43;;;;;;;3.27;1.13;;;7.10;99.90;;;;;;5028923;28;20533;-82
2022/02/11 15:28:13;;;;;;;2.70;1.20;;;6.90;99.90;;;;;;5023325;28;20463;-85
2022/02/11 15:30:42;;;;;;;1.80;0.93;;;6.80;99.90;;;;;;5022998;28;20482;-84
2022/02/11 15:33:10;;;;;;;2.90;1.00;;;6.70;99.90;;;;;;5032092;28;20501;-83
2022/02/11 15:35:41;;;;;;;5.63;1.40;;;6.60;99.90;;;;;;5028297;28;20490;-83
2022/02/11 15:38:09;;;;;;;3.90;1.50;;;6.50;99.90;;;;;;5029154;28;20555;-82
2022/02/11 15:40:37;;;;;;;1.47;1.27;;;6.50;99.90;;;;;;5028523;28;20480;-83
2022/02/11 15:43:08;;;;;;;4.23;1.20;;;6.40;99.90;;;;;;5032065;28;20481;-83
2022/02/11 15:45:36;;;;;;;2.73;1.57;;;6.30;99.90;;;;;;5030476;28;20488;-85
2022/02/11 15:48:06;;;;;;;4.30;1.17;;;6.30;99.90;;;;;;5043778;28;20528;-86
2022/02/11 15:50:34;;;;;;;2.40;1.27;;;6.30;99.90;;;;;;5032077;28;20497;-85
2022/02/11 15:53:04;;;;;;;2.37;1.20;;;6.10;99.90;;;;;;5031056;28;20462;-83
2022/02/11 15:55:35;;;;;;;1.90;0.93;;;6.10;99.90;;;;;;5044268;28;20523;-86
2022/02/11 15:58:04;;;;;;;2.43;1.30;;;6.10;99.90;;;;;;5033619;28;20464;-86
2022/02/11 16:00:33;;;;;;;2.73;1.10;;;6.00;99.90;;;;;;5033025;28;20487;-85
2022/02/11 16:03:03;;;;;;;2.43;1.00;;;5.90;99.90;;;;;;5026268;28;20479;-85
2022/02/11 16:05:35;;;;;;;2.30;0.90;;;5.80;99.90;;;;;;5030533;28;20473;-84
2022/02/11 16:08:03;;;;;;;2.40;0.90;;;5.80;99.90;;;;;;5033959;28;20474;-85
2022/02/11 16:10:32;;;;;;;2.20;1.07;;;5.70;99.90;;;;;;5027473;28;20488;-86
2022/02/11 16:13:00;;;;;;;4.17;1.43;;;5.70;99.90;;;;;;5032439;28;20559;-82
2022/02/11 16:15:28;;;;;;;3.27;1.10;;;5.60;99.90;;;;;;5030439;28;20580;-82
2022/02/11 16:18:03;;;;;;;2.27;1.20;;;5.60;99.90;;;;;;5027035;28;20476;-83
2022/02/11 16:20:35;;;;;;;2.80;1.13;;;5.50;99.90;;;;;;5025228;28;20495;-85
2022/02/11 16:23:07;;;;;;;2.20;1.20;;;5.50;99.90;;;;;;5031290;28;20484;-85
2022/02/11 16:25:35;;;;;;;4.73;1.60;;;5.40;99.90;;;;;;5031549;28;20467;-84